Time;durP1;ratioP1;P1;durP2;ratioP2;P2;SDS_P1;SDS_P2;PMS_P1;PMS_P2;Temp;Humidity;BMP_temperature;BMP_pressure;BME280_temperature;BME280_humidity;BME280_pressure;Samples;Min_cycle;Max_cycle;Signal;HPM_P1;HPM_P2
2022/08/28 00:00:40;;;;;;;2.33;2.22;;;19.90;99.90;;;20.15;62.65;101904.22;4824610;29;20070;-60
2022/08/28 00:03:12;;;;;;;2.65;2.55;;;19.80;99.90;;;20.11;62.72;101905.25;4824720;29;20088;-60
2022/08/28 00:05:41;;;;;;;2.60;2.50;;;19.80;99.90;;;20.12;62.83;101904.34;4788683;29;20130;-60
2022/08/28 00:08:12;;;;;;;2.30;2.20;;;19.80;99.90;;;20.12;62.90;101908.81;4788647;29;20513;-60
2022/08/28 00:10:42;;;;;;;9.20;8.30;;;19.80;99.90;;;20.10;62.66;101902.59;4788405;29;20059;-60
2022/08/28 00:13:17;;;;;;;2.80;2.70;;;19.80;99.90;;;19.86;63.21;101876.41;4788570;29;20130;-60
2022/08/28 00:15:48;;;;;;;2.47;2.38;;;19.70;99.90;;;20.00;63.41;101903.75;4788487;29;20109;-60
2022/08/28 00:18:18;;;;;;;2.72;2.63;;;19.60;99.90;;;20.01;63.50;101895.69;4788215;29;20486;-60
2022/08/28 00:20:47;;;;;;;2.65;2.55;;;19.60;99.90;;;19.97;63.62;101907.44;4788442;29;20055;-60
2022/08/28 00:23:16;;;;;;;2.47;2.38;;;19.60;99.90;;;19.93;63.54;101902.16;4788008;29;20047;-60
2022/08/28 00:25:45;;;;;;;2.47;2.38;;;19.60;99.90;;;19.91;63.84;101904.91;4787823;29;20151;-60
2022/08/28 00:28:14;;;;;;;2.50;2.40;;;19.60;99.90;;;19.82;63.83;101905.16;4787847;29;20074;-60
2022/08/28 00:30:54;;;;;;;2.22;2.13;;;19.50;99.90;;;19.82;63.77;101902.47;4787812;29;20474;-61
2022/08/28 00:33:28;;;;;;;2.40;2.30;;;19.50;99.90;;;19.78;63.88;101898.09;4787753;29;20065;-60
2022/08/28 00:35:57;;;;;;;3.20;3.10;;;19.50;99.90;;;19.95;63.76;101909.28;4787750;29;20047;-60
2022/08/28 00:38:28;;;;;;;2.53;2.42;;;19.60;99.90;;;19.90;63.87;101913.00;4788073;29;20043;-60
2022/08/28 00:41:01;;;;;;;2.50;2.40;;;19.60;99.90;;;19.92;64.00;101919.22;4787573;30;20078;-60
2022/08/28 00:43:41;;;;;;;2.30;2.20;;;19.60;99.90;;;19.84;63.83;101913.16;4787509;29;20039;-60
2022/08/28 00:46:13;;;;;;;2.42;2.33;;;19.50;99.90;;;19.86;64.07;101912.19;4787596;29;20124;-60
2022/08/28 00:48:43;;;;;;;2.40;2.30;;;19.50;99.90;;;19.83;64.08;101914.97;4788434;29;20065;-60
2022/08/28 00:54:13;;;;;;;2.42;2.33;;;19.50;99.90;;;19.71;64.09;101888.41;4753320;30;20127;-60
2022/08/28 00:56:43;;;;;;;2.30;2.20;;;19.50;99.90;;;19.89;63.89;101917.50;4753399;30;20069;-60
2022/08/28 00:59:17;;;;;;;2.60;2.50;;;19.60;99.90;;;19.28;64.07;101801.84;4771217;29;20055;-60
2022/08/28 01:01:47;;;;;;;3.13;2.92;;;19.60;99.90;;;19.92;64.33;101912.03;4791609;29;20498;-60
2022/08/28 01:04:20;;;;;;;2.67;2.58;;;19.60;99.90;;;19.95;64.33;101911.97;4807188;29;20141;-60
2022/08/28 01:06:52;;;;;;;2.67;2.58;;;19.60;99.90;;;19.94;64.18;101918.25;4827282;29;20082;-60
2022/08/28 01:09:23;;;;;;;2.50;2.40;;;19.60;99.90;;;19.94;64.17;101920.94;4827763;29;20137;-60
2022/08/28 01:11:56;;;;;;;2.47;2.38;;;19.60;99.90;;;19.91;64.41;101910.28;4827312;29;20077;-60
2022/08/28 01:14:25;;;;;;;2.17;2.08;;;19.60;99.90;;;19.49;64.15;101841.59;4827432;29;20043;-60
2022/08/28 01:16:55;;;;;;;2.53;2.42;;;19.60;99.90;;;19.86;64.40;101906.81;4827631;29;20046;-60
2022/08/28 01:19:32;;;;;;;2.50;2.40;;;19.60;99.90;;;19.88;64.36;101904.13;4827331;29;20078;-60
2022/08/28 01:22:15;;;;;;;2.40;2.30;;;19.60;99.90;;;19.88;64.35;101904.97;4827092;29;20484;-60
2022/08/28 01:24:47;;;;;;;2.42;2.33;;;19.60;99.90;;;19.81;64.91;101898.00;4827103;29;20562;-59
2022/08/28 01:27:16;;;;;;;2.40;2.30;;;19.50;99.90;;;19.88;65.03;101899.59;4826737;29;20069;-60
2022/08/28 01:29:44;;;;;;;2.53;2.42;;;19.60;99.90;;;19.79;64.79;101903.41;4825585;29;20606;-60
2022/08/28 01:32:29;;;;;;;2.13;2.03;;;19.50;99.90;;;19.85;65.11;101902.38;4826889;29;20054;-60
2022/08/28 01:34:57;;;;;;;2.60;2.50;;;19.50;99.90;;;19.84;65.09;101905.13;4826751;29;20479;-60
2022/08/28 01:37:26;;;;;;;2.72;2.63;;;19.50;99.90;;;19.80;65.00;101898.94;4826393;29;20043;-60
2022/08/28 01:39:55;;;;;;;2.42;2.33;;;19.50;99.90;;;19.82;64.89;101893.53;4826362;29;20054;-60
2022/08/28 01:42:24;;;;;;;8.90;2.78;;;19.50;99.90;;;19.83;64.91;101897.97;4826856;29;20421;-60
2022/08/28 01:44:53;;;;;;;2.42;2.33;;;19.50;99.90;;;19.83;64.77;101897.97;4826755;29;20448;-59
2022/08/28 01:47:22;;;;;;;2.33;2.22;;;19.50;99.90;;;19.86;65.06;101903.28;4825382;29;20396;-60
2022/08/28 01:49:50;;;;;;;2.45;2.35;;;19.50;99.90;;;19.82;65.17;101899.78;4826391;29;20412;-60
2022/08/28 01:52:19;;;;;;;2.60;2.50;;;19.50;99.90;;;19.82;65.25;101910.53;4826646;29;20504;-60
2022/08/28 01:54:55;;;;;;;2.45;2.35;;;19.50;99.90;;;19.80;65.29;101923.97;4826262;29;20446;-59
2022/08/28 01:57:26;;;;;;;2.45;2.35;;;19.50;99.90;;;19.75;65.39;101912.47;4826581;29;20050;-60
2022/08/28 01:59:54;;;;;;;2.50;2.40;;;19.40;99.90;;;19.76;65.26;101916.06;4825943;29;20054;-60
2022/08/28 02:02:23;;;;;;;2.53;2.42;;;19.40;99.90;;;19.77;65.52;101913.31;4840301;29;20081;-60
2022/08/28 02:04:52;;;;;;;3.10;3.00;;;19.40;99.90;;;19.77;65.28;101915.13;4825938;29;20062;-60
2022/08/28 02:07:20;;;;;;;3.05;2.95;;;19.40;99.90;;;19.76;65.70;101914.22;4826379;29;20080;-60
2022/08/28 02:09:49;;;;;;;2.75;2.65;;;19.40;99.90;;;19.75;65.60;101915.16;4826316;29;20138;-60
2022/08/28 02:12:19;;;;;;;2.47;2.38;;;19.40;99.90;;;19.71;65.66;101912.59;4826021;29;20512;-60
2022/08/28 02:14:47;;;;;;;2.28;2.17;;;19.40;99.90;;;19.67;65.88;101916.25;4826061;29;20074;-60
2022/08/28 02:17:16;;;;;;;2.60;2.50;;;19.30;99.90;;;19.67;65.86;101918.94;4825870;29;20042;-60
2022/08/28 02:19:44;;;;;;;2.38;2.28;;;19.30;99.90;;;19.60;66.07;101920.91;4826146;29;20133;-60
2022/08/28 02:22:12;;;;;;;2.30;2.20;;;19.20;99.90;;;19.61;66.02;101921.78;4825810;29;20047;-60
2022/08/28 02:24:40;;;;;;;2.63;2.53;;;19.30;99.90;;;19.55;66.15;101925.50;4825806;29;20099;-60
2022/08/28 02:27:09;;;;;;;2.58;2.47;;;19.20;99.90;;;19.56;66.06;101927.28;4826075;29;20129;-60
2022/08/28 02:29:39;;;;;;;2.30;2.20;;;19.20;99.90;;;19.50;66.57;101929.22;4824751;29;20058;-60
2022/08/28 02:32:08;;;;;;;2.47;2.38;;;19.10;99.90;;;19.45;66.52;101920.41;4825794;29;20074;-60
2022/08/28 02:34:37;;;;;;;2.50;2.40;;;19.10;99.90;;;19.49;66.67;101927.47;4825695;29;20049;-60
2022/08/28 02:37:07;;;;;;;2.55;2.45;;;19.10;99.90;;;19.48;66.74;101921.22;4824577;29;20046;-60
2022/08/28 02:39:35;;;;;;;2.72;2.63;;;19.10;99.90;;;19.44;66.64;101918.63;4825586;29;20042;-60
2022/08/28 02:42:04;;;;;;;2.60;2.50;;;19.10;99.90;;;19.47;66.78;101918.56;4825925;29;20154;-60
2022/08/28 02:44:34;;;;;;;2.55;2.45;;;19.10;99.90;;;19.32;66.96;101895.66;4825869;29;20059;-60
2022/08/28 02:47:04;;;;;;;2.78;2.67;;;19.10;99.90;;;19.48;66.78;101923.00;4826089;29;20055;-60
2022/08/28 02:49:32;;;;;;;;;;;19.10;99.90;;;19.46;66.83;101927.53;4824851;29;20673;-60
2022/08/28 02:52:05;;;;;;;2.35;2.25;;;19.10;99.90;;;19.42;67.08;101926.72;4825820;29;20345;-60
2022/08/28 02:54:36;;;;;;;2.38;2.28;;;19.10;99.90;;;19.41;67.23;101930.34;4825982;29;20054;-60
2022/08/28 02:57:05;;;;;;;2.10;2.00;;;19.10;99.90;;;19.45;67.12;101932.00;4825311;29;20463;-59
2022/08/28 02:59:33;;;;;;;2.53;2.42;;;19.00;99.90;;;19.52;66.89;101938.13;4825541;29;20085;-60
2022/08/28 03:02:05;;;;;;;2.33;2.22;;;19.10;99.90;;;19.48;67.16;101931.94;4825499;29;20082;-60
2022/08/28 03:04:35;;;;;;;2.60;2.50;;;19.10;99.90;;;19.47;67.12;101934.69;4825689;29;20137;-60
2022/08/28 03:07:06;;;;;;;2.30;2.20;;;19.10;99.90;;;19.40;67.03;101938.41;4825171;29;20055;-59
2022/08/28 03:09:34;;;;;;;2.50;2.40;;;19.10;99.90;;;19.39;67.08;101933.97;4825442;29;20054;-60
2022/08/28 03:12:03;;;;;;;2.40;2.30;;;19.00;99.90;;;19.39;67.15;101931.28;4824562;29;20051;-60
2022/08/28 03:14:32;;;;;;;2.45;2.35;;;19.00;99.90;;;19.37;67.17;101925.97;4824992;29;20046;-60
2022/08/28 03:17:00;;;;;;;2.70;2.60;;;19.00;99.90;;;19.39;67.19;101931.28;4825010;29;20054;-60
2022/08/28 03:19:30;;;;;;;2.55;2.45;;;19.10;99.90;;;19.36;67.26;101940.28;4825055;29;20110;-60
2022/08/28 03:21:58;;;;;;;2.30;2.20;;;19.00;99.90;;;19.34;67.41;101934.06;4825026;29;20142;-60
2022/08/28 03:24:26;;;;;;;2.55;2.45;;;19.00;99.90;;;19.36;67.68;101942.97;4824834;29;20064;-60
2022/08/28 03:26:55;;;;;;;2.65;2.55;;;19.00;99.90;;;19.34;67.77;101933.19;4824006;29;20082;-60
2022/08/28 03:29:23;;;;;;;2.38;2.28;;;19.00;99.90;;;19.35;67.53;101934.97;4825054;29;20044;-60
2022/08/28 03:31:51;;;;;;;2.53;2.42;;;19.00;99.90;;;19.35;67.41;101934.97;4824580;29;20413;-59
2022/08/28 03:34:19;;;;;;;2.35;2.25;;;19.00;99.90;;;19.36;67.75;101934.03;4824623;29;20050;-60
2022/08/28 03:36:49;;;;;;;2.40;2.30;;;19.00;99.90;;;19.36;67.71;101936.72;4824746;29;20129;-60
2022/08/28 03:39:18;;;;;;;2.87;2.77;;;19.00;99.90;;;19.20;67.70;101914.69;4824545;29;20468;-59
2022/08/28 03:41:46;;;;;;;2.53;2.42;;;19.00;99.90;;;19.31;67.78;101944.84;4824491;29;20095;-60
2022/08/28 03:44:15;;;;;;;2.40;2.30;;;18.90;99.90;;;19.30;67.97;101942.22;4824390;29;20051;-60
2022/08/28 03:46:43;;;;;;;2.60;2.50;;;19.00;99.90;;;19.31;67.95;101943.97;4824383;29;20058;-60
2022/08/28 03:49:12;;;;;;;2.63;2.53;;;18.90;99.90;;;19.27;67.97;101947.63;4824534;29;20066;-59
2022/08/28 03:51:41;;;;;;;2.60;2.50;;;18.90;99.90;;;19.26;68.01;101948.56;4824635;29;20042;-59
2022/08/28 03:54:11;;;;;;;2.67;2.57;;;18.90;99.90;;;19.21;68.31;101947.78;4824425;29;20531;-59
2022/08/28 03:56:42;;;;;;;2.40;2.30;;;18.80;99.90;;;19.20;68.52;101943.34;4824287;29;20502;-60
2022/08/28 03:59:10;;;;;;;;;;;18.80;99.90;;;19.18;68.42;101945.16;4824770;29;20099;-60
2022/08/28 04:01:39;;;;;;;2.88;2.78;;;18.80;99.90;;;19.17;68.35;101954.13;4824373;29;19924;-60
2022/08/28 04:04:07;;;;;;;2.60;2.50;;;18.80;99.90;;;19.20;68.27;101954.94;4824559;29;20107;-59
2022/08/28 04:06:37;;;;;;;2.80;2.70;;;18.80;99.90;;;19.18;68.13;101958.59;4824293;29;20084;-60
2022/08/28 04:09:06;;;;;;;2.80;2.70;;;18.80;99.90;;;19.16;68.07;101961.31;4824224;29;20464;-60
2022/08/28 04:11:41;;;;;;;2.70;2.60;;;18.80;99.90;;;19.13;68.00;101958.66;4823259;29;20473;-60
2022/08/28 04:14:10;;;;;;;2.30;2.20;;;18.80;99.90;;;19.15;68.11;101962.22;4824686;29;20050;-60
2022/08/28 04:16:38;;;;;;;2.55;2.45;;;18.80;99.90;;;19.20;68.05;101956.75;4824930;29;20050;-59
2022/08/28 04:19:06;;;;;;;2.65;2.55;;;18.90;99.90;;;19.18;68.24;101958.59;4824345;29;20473;-59
2022/08/28 04:21:35;;;;;;;2.78;2.67;;;18.80;99.90;;;19.14;67.97;101951.50;4824023;29;20507;-60
2022/08/28 04:24:03;;;;;;;2.60;2.50;;;18.80;99.90;;;19.07;68.02;101963.28;4823600;29;20046;-60
2022/08/28 04:26:38;;;;;;;2.40;2.30;;;18.70;99.90;;;19.06;67.94;101956.16;4822975;29;20147;-59
2022/08/28 04:29:07;;;;;;;2.60;2.50;;;18.70;99.90;;;19.07;67.90;101961.50;4824095;29;20047;-60
2022/08/28 04:31:36;;;;;;;2.50;2.40;;;18.70;99.90;;;19.06;68.15;101961.53;4823949;29;20446;-60
2022/08/28 04:34:09;;;;;;;3.83;3.63;;;18.70;99.90;;;19.07;68.23;101963.28;4824065;29;20129;-60
2022/08/28 04:36:38;;;;;;;2.47;2.38;;;18.70;99.90;;;19.14;68.29;101959.56;4824386;29;20133;-60
2022/08/28 04:39:09;;;;;;;2.45;2.35;;;18.80;99.90;;;19.10;68.33;101961.44;4824073;29;20057;-60
2022/08/28 04:41:38;;;;;;;2.38;2.28;;;18.80;99.90;;;19.09;68.43;101950.72;4824001;29;20478;-60
2022/08/28 04:44:08;;;;;;;2.70;2.60;;;18.80;99.90;;;19.24;68.56;101961.13;4823973;29;20074;-59
2022/08/28 04:46:37;;;;;;;2.30;2.20;;;18.80;99.90;;;19.08;68.26;101924.81;4822811;29;20050;-60
2022/08/28 04:49:05;;;;;;;2.38;2.28;;;18.90;99.90;;;19.27;68.43;101964.63;4822906;29;20481;-60
2022/08/28 04:51:34;;;;;;;2.63;2.53;;;18.90;99.90;;;19.23;68.67;101967.41;4824058;29;20078;-60
2022/08/28 04:54:09;;;;;;;2.40;2.30;;;18.90;99.90;;;19.29;68.43;101975.31;4822806;29;20055;-60
2022/08/28 04:56:40;;;;;;;2.75;2.65;;;18.90;99.90;;;19.36;68.46;101971.59;4823781;29;20439;-60
2022/08/28 04:59:09;;;;;;;2.92;2.83;;;19.00;99.90;;;19.38;68.27;101980.50;4824039;29;20051;-59
2022/08/28 05:01:37;;;;;;;2.45;2.35;;;19.00;99.90;;;19.41;68.19;101973.28;4822685;29;20507;-60
2022/08/28 05:04:06;;;;;;;2.90;2.80;;;19.10;99.90;;;19.56;67.86;101977.41;4823696;29;20115;-59
2022/08/28 05:06:35;;;;;;;2.55;2.45;;;19.20;99.90;;;19.58;67.59;101980.94;4823909;29;20490;-60
2022/08/28 05:09:04;;;;;;;3.08;2.97;;;19.30;99.90;;;19.60;67.46;101981.78;4823611;29;20548;-59
2022/08/28 05:11:33;;;;;;;2.90;2.80;;;19.30;99.90;;;19.57;67.59;101985.41;4823547;29;20531;-60
2022/08/28 05:14:06;;;;;;;2.70;2.60;;;19.30;99.90;;;19.60;67.50;101984.47;4823751;29;20050;-60
2022/08/28 05:16:41;;;;;;;2.70;2.60;;;19.30;99.90;;;19.63;67.44;101992.44;4823818;29;20074;-59
2022/08/28 05:19:11;;;;;;;2.50;2.40;;;19.40;99.90;;;19.61;67.62;101992.47;4823573;29;20069;-60
2022/08/28 05:21:39;;;;;;;2.20;2.10;;;19.30;99.90;;;19.56;67.56;101982.75;4823472;29;20461;-59
2022/08/28 05:24:08;;;;;;;2.53;2.42;;;19.30;99.90;;;19.64;67.49;102002.25;4823498;29;20506;-60
2022/08/28 05:26:37;;;;;;;2.50;2.40;;;19.30;99.90;;;19.61;67.28;101991.59;4823723;29;20043;-60
2022/08/28 05:29:09;;;;;;;2.30;2.20;;;19.30;99.90;;;19.71;67.17;101993.13;4823489;29;20413;-60
2022/08/28 05:31:40;;;;;;;2.30;2.20;;;19.40;99.90;;;19.71;67.36;101987.75;4823676;29;20047;-60
2022/08/28 05:34:09;;;;;;;2.65;2.55;;;19.40;99.90;;;19.71;67.60;101996.72;4823694;29;20513;-60
2022/08/28 05:36:38;;;;;;;2.33;2.22;;;19.40;99.90;;;19.71;67.55;102006.56;4825411;29;20050;-60
2022/08/28 05:39:10;;;;;;;2.70;2.60;;;19.40;99.90;;;19.70;67.18;101994.94;4826771;29;20121;-60
2022/08/28 05:41:42;;;;;;;2.40;2.30;;;19.50;99.90;;;19.86;67.18;102008.88;4826893;29;20421;-60
2022/08/28 05:44:14;;;;;;;2.20;2.10;;;19.50;99.90;;;19.91;67.08;102006.09;4826611;29;20496;-59
2022/08/28 05:46:47;;;;;;;2.60;2.50;;;19.60;99.90;;;19.95;66.82;102002.41;4826519;29;20500;-60
2022/08/28 05:49:16;;;;;;;3.03;2.92;;;19.60;99.90;;;19.95;66.82;102005.97;4826538;29;20493;-60
2022/08/28 05:51:46;;;;;;;2.60;2.50;;;19.70;99.90;;;20.09;66.66;102008.31;4826334;29;20099;-59
2022/08/28 05:54:15;;;;;;;2.30;2.20;;;19.80;99.90;;;20.13;66.76;102004.63;4826254;29;20313;-60
2022/08/28 05:56:45;;;;;;;2.30;2.20;;;19.80;99.90;;;19.93;66.52;101962.16;4826180;29;20046;-60
2022/08/28 05:59:16;;;;;;;2.70;2.60;;;19.90;99.90;;;20.22;66.32;101999.94;4826212;29;20541;-60
2022/08/28 06:01:47;;;;;;;2.38;2.28;;;19.90;99.90;;;20.31;66.00;102006.84;4826298;29;20050;-60
2022/08/28 06:04:18;;;;;;;2.53;2.42;;;20.00;99.90;;;20.33;65.74;101997.84;4826566;29;20058;-60
2022/08/28 06:06:48;;;;;;;2.50;2.40;;;20.10;99.90;;;20.49;65.80;102007.28;4826664;29;20111;-60
2022/08/28 06:09:20;;;;;;;2.40;2.30;;;20.20;99.90;;;20.59;65.43;102008.78;4826057;29;20060;-60
2022/08/28 06:11:57;;;;;;;2.65;2.55;;;20.30;99.90;;;20.88;65.42;102017.84;4826400;29;20050;-60
2022/08/28 06:14:28;;;;;;;2.63;2.53;;;20.60;99.90;;;21.14;64.47;102007.22;4826045;29;20516;-60
2022/08/28 06:16:58;;;;;;;2.40;2.30;;;20.80;99.90;;;21.35;63.50;102006.59;4825073;29;20061;-60
2022/08/28 06:19:29;;;;;;;2.47;2.38;;;21.00;99.90;;;21.64;62.42;102011.94;4824627;29;20621;-60
2022/08/28 06:22:02;;;;;;;2.45;2.35;;;21.30;99.90;;;21.83;61.48;102015.88;4825646;29;20525;-60
2022/08/28 06:24:35;;;;;;;2.20;2.10;;;21.50;99.90;;;21.94;61.04;102000.22;4826126;29;20099;-60
2022/08/28 06:27:03;;;;;;;2.40;2.30;;;21.60;99.90;;;22.16;60.46;102021.94;4825441;29;20485;-60
2022/08/28 06:29:33;;;;;;;2.30;2.20;;;21.80;99.90;;;22.34;59.91;102032.09;4824479;29;20169;-60
2022/08/28 06:32:04;;;;;;;2.40;2.30;;;22.00;99.90;;;22.47;59.28;102022.66;4825675;29;20081;-60
2022/08/28 06:34:32;;;;;;;2.15;2.05;;;22.10;99.90;;;22.53;58.35;102029.66;4825476;29;20054;-60
2022/08/28 06:37:01;;;;;;;2.35;2.25;;;22.30;99.90;;;22.60;58.93;102033.91;4825660;29;20065;-60
2022/08/28 06:39:29;;;;;;;2.30;2.20;;;22.30;99.90;;;22.76;58.53;102029.75;4825646;29;20089;-60
2022/08/28 06:41:57;;;;;;;2.50;2.38;;;22.50;99.90;;;22.79;57.91;102032.31;4825711;29;20058;-60
2022/08/28 06:44:26;;;;;;;2.22;2.13;;;22.50;99.90;;;22.93;58.07;102038.97;4824382;29;20050;-60
2022/08/28 06:46:56;;;;;;;2.40;2.30;;;22.60;99.90;;;22.94;56.93;102039.84;4825694;29;20511;-60
2022/08/28 06:49:24;;;;;;;2.40;2.30;;;22.70;99.90;;;22.88;57.05;102042.78;4825525;29;20093;-60
2022/08/28 06:51:54;;;;;;;2.10;2.00;;;22.70;99.90;;;22.89;57.09;102037.34;4825780;29;20050;-60
2022/08/28 06:54:23;;;;;;;2.13;2.03;;;22.60;99.90;;;23.06;57.57;102037.59;4825823;29;20049;-60
2022/08/28 06:56:52;;;;;;;2.58;2.47;;;22.80;99.90;;;23.19;56.36;102038.00;4825511;29;20121;-60
2022/08/28 06:59:20;;;;;;;2.13;2.03;;;22.90;99.90;;;23.32;56.57;102044.75;4825616;29;20458;-60
2022/08/28 07:01:52;;;;;;;2.42;2.33;;;23.00;99.90;;;23.42;56.55;102037.16;4825608;29;20053;-60
2022/08/28 07:04:22;;;;;;;2.33;2.22;;;23.20;99.90;;;23.49;55.64;102053.06;4825468;29;20062;-60
2022/08/28 07:06:50;;;;;;;2.10;2.00;;;23.30;99.90;;;23.65;55.58;102048.84;4824157;29;20054;-62
2022/08/28 07:09:22;;;;;;;1.90;1.80;;;23.40;99.90;;;23.73;55.36;102056.63;4825343;29;20069;-61
2022/08/28 07:11:51;;;;;;;2.13;2.03;;;23.50;99.90;;;23.66;54.97;102055.09;4824983;29;20045;-61
2022/08/28 07:14:19;;;;;;;1.98;1.88;;;23.50;99.90;;;23.78;54.85;102050.09;4825178;29;20103;-61
2022/08/28 07:16:47;;;;;;;2.05;1.95;;;23.60;99.90;;;23.82;54.06;102056.25;4825238;29;20412;-63
2022/08/28 07:19:16;;;;;;;2.30;2.20;;;23.60;99.90;;;23.72;53.91;102034.13;4825377;29;20146;-62
2022/08/28 07:21:46;;;;;;;2.22;2.13;;;23.70;99.90;;;23.79;53.63;102061.81;4824730;29;20065;-61
2022/08/28 07:24:16;;;;;;;2.45;2.35;;;23.60;99.90;;;23.40;53.88;102057.94;4824913;29;20054;-61
2022/08/28 07:26:46;;;;;;;1.90;1.80;;;23.30;99.90;;;23.39;54.30;102061.56;4825167;29;20478;-62
2022/08/28 07:29:15;;;;;;;2.72;2.63;;;23.20;99.90;;;23.32;54.05;102066.34;4823547;29;20200;-62
2022/08/28 07:31:47;;;;;;;2.60;2.50;;;23.10;99.90;;;23.21;54.76;102049.63;4823606;29;20469;-65
2022/08/28 07:34:18;;;;;;;2.50;2.40;;;23.00;99.90;;;23.19;54.78;102071.28;4824598;29;20099;-65
2022/08/28 07:36:50;;;;;;;2.35;2.25;;;23.00;99.90;;;23.37;55.40;102074.25;4824610;29;20129;-71
2022/08/28 07:39:19;;;;;;;2.22;2.13;;;23.10;99.90;;;23.57;55.38;102077.97;4824468;29;20247;-66
2022/08/28 07:41:50;;;;;;;2.35;2.25;;;23.30;99.90;;;23.70;54.67;102084.66;4824494;29;20077;-65
2022/08/28 07:47:06;;;;;;;2.47;2.38;;;23.50;99.90;;;23.87;53.77;102083.97;4824713;29;20099;-65
2022/08/28 07:49:36;;;;;;;2.45;2.15;;;23.60;99.90;;;23.80;53.10;102082.47;4824910;29;20061;-64
2022/08/28 07:52:07;;;;;;;2.22;2.13;;;23.60;99.90;;;23.79;53.28;102083.41;4824494;29;20042;-65
2022/08/28 07:54:36;;;;;;;2.20;2.10;;;23.60;99.90;;;23.79;53.35;102088.81;4824294;29;20102;-65
2022/08/28 07:57:06;;;;;;;1.60;1.60;;;23.60;99.90;;;23.63;53.40;102082.25;4824832;29;20057;-65
2022/08/28 07:59:35;;;;;;;1.95;1.85;;;23.50;99.90;;;23.72;53.52;102090.00;4823762;29;20050;-64
2022/08/28 08:02:05;;;;;;;2.25;2.15;;;23.50;99.90;;;23.78;54.09;102092.44;4824213;29;20310;-64
2022/08/28 08:04:33;;;;;;;2.08;1.98;;;23.60;99.90;;;24.04;53.27;102085.09;4824217;29;20382;-66
2022/08/28 08:07:04;;;;;;;2.30;2.20;;;23.80;99.90;;;24.28;52.96;102099.44;4824234;29;20050;-68
2022/08/28 08:09:37;;;;;;;2.08;1.98;;;24.10;99.90;;;24.45;52.67;102099.59;4824731;29;20135;-65
2022/08/28 08:12:06;;;;;;;2.10;2.00;;;24.30;99.90;;;24.62;52.32;102104.31;4824124;29;20058;-65
2022/08/28 08:14:38;;;;;;;2.00;1.90;;;24.40;99.90;;;24.77;50.92;102092.84;4824505;29;20057;-65
2022/08/28 08:17:07;;;;;;;2.30;2.20;;;24.60;99.90;;;24.86;51.63;102109.56;4824011;29;20524;-63
2022/08/28 08:19:36;;;;;;;2.00;1.90;;;24.70;99.90;;;25.05;50.99;102107.81;4823883;29;20111;-72
2022/08/28 08:22:06;;;;;;;2.10;2.00;;;24.80;99.90;;;24.98;50.01;102113.56;4824150;29;20064;-70
2022/08/28 08:24:34;;;;;;;2.20;2.10;;;24.90;99.90;;;25.02;49.95;102117.91;4824428;29;20054;-70
2022/08/28 08:27:05;;;;;;;1.63;1.63;;;24.80;99.90;;;25.01;49.89;102086.34;4824207;29;20047;-70
2022/08/28 08:29:36;;;;;;;2.00;1.90;;;24.90;99.90;;;25.29;49.39;102113.94;4824057;29;20409;-66
2022/08/28 08:32:07;;;;;;;1.80;1.80;;;25.10;99.90;;;25.26;48.97;102107.81;4823802;29;20058;-67
2022/08/28 08:34:42;;;;;;;2.08;1.98;;;25.10;99.90;;;25.43;48.34;102116.97;4823547;29;20193;-67
2022/08/28 08:37:13;;;;;;;1.90;1.85;;;25.20;99.90;;;25.30;47.57;102104.84;4823779;29;20592;-64
2022/08/28 08:39:43;;;;;;;2.00;1.90;;;25.20;99.90;;;25.26;47.66;102105.09;4823528;29;20497;-64
2022/08/28 08:42:23;;;;;;;1.67;1.67;;;25.10;99.90;;;25.23;47.77;102111.53;4823592;29;20078;-67
2022/08/28 08:44:54;;;;;;;2.10;2.00;;;25.00;99.90;;;25.10;47.77;102102.19;4824135;29;20055;-64
2022/08/28 08:47:31;;;;;;;1.77;1.77;;;25.00;99.90;;;25.12;48.03;102110.25;4824307;29;20039;-66
2022/08/28 08:50:02;;;;;;;2.05;1.95;;;24.90;99.90;;;25.12;47.72;102105.72;4823856;29;20050;-63
2022/08/28 08:52:38;;;;;;;2.13;2.03;;;25.00;99.90;;;24.54;48.36;102101.06;4824039;29;20074;-66
2022/08/28 08:55:26;;;;;;;1.70;1.70;;;24.50;99.90;;;24.71;47.64;102095.78;4823736;29;20054;-65
2022/08/28 08:58:05;;;;;;;2.10;2.00;;;24.50;99.90;;;24.82;47.82;102113.34;4823678;29;20129;-66
2022/08/28 09:00:51;;;;;;;2.00;1.90;;;24.60;99.90;;;24.92;48.27;102098.47;4823508;29;20058;-65
2022/08/28 09:03:24;;;;;;;2.00;1.90;;;24.70;99.90;;;24.88;47.08;102095.97;4823326;29;20420;-64
2022/08/28 09:05:56;;;;;;;2.30;2.20;;;24.70;99.90;;;25.09;46.79;102097.72;4823528;29;20147;-66
2022/08/28 09:08:36;;;;;;;2.50;2.40;;;24.80;99.90;;;25.03;46.73;102100.69;4823592;29;20050;-66
2022/08/28 09:11:23;;;;;;;1.90;1.80;;;24.80;99.90;;;24.51;48.10;102107.47;4824892;29;20085;-65
2022/08/28 09:13:59;;;;;;;2.00;1.90;;;24.30;99.90;;;24.84;48.87;102097.03;4827297;29;20126;-64
2022/08/28 09:16:32;;;;;;;2.10;2.00;;;24.60;99.90;;;24.69;47.65;102103.09;4826933;29;20129;-63
2022/08/28 09:19:01;;;;;;;2.13;2.03;;;24.50;99.90;;;24.38;48.12;102106.22;4826832;29;20046;-64
2022/08/28 09:21:34;;;;;;;1.75;1.73;;;24.30;99.90;;;23.80;48.05;102001.38;4827062;29;20149;-65
2022/08/28 09:24:07;;;;;;;2.30;2.15;;;24.20;99.90;;;23.51;49.29;102082.72;4826596;29;20453;-64
2022/08/28 09:26:40;;;;;;;1.85;1.77;;;23.60;99.90;;;23.77;49.37;102101.53;4826739;29;20053;-64
2022/08/28 09:29:17;;;;;;;2.28;2.17;;;23.50;99.90;;;23.85;49.76;102100.25;4826738;29;20504;-67
2022/08/28 09:31:45;;;;;;;1.85;1.80;;;23.60;99.90;;;23.96;50.31;102106.09;4826557;29;20050;-65
2022/08/28 09:34:22;;;;;;;2.22;2.13;;;23.60;99.90;;;24.09;49.29;102102.03;4826359;29;20038;-61
2022/08/28 09:36:52;;;;;;;2.67;2.58;;;23.70;99.90;;;24.27;50.06;102091.38;4826555;29;20122;-61
2022/08/28 09:39:25;;;;;;;2.10;2.00;;;23.90;99.90;;;24.54;50.07;102095.63;4826229;29;20145;-65
2022/08/28 09:45:06;;;;;;;1.80;1.80;;;24.40;99.90;;;24.79;48.01;102096.38;4826379;29;20501;-63
2022/08/28 09:47:47;;;;;;;2.15;2.05;;;24.60;99.90;;;24.95;48.58;102102.88;4826621;29;20055;-62
2022/08/28 09:50:26;;;;;;;1.83;1.77;;;24.70;99.90;;;24.54;47.40;102096.53;4826323;29;20082;-64
2022/08/28 09:52:57;;;;;;;2.00;1.90;;;24.40;99.90;;;24.57;47.25;102092.78;4826219;29;20504;-62
2022/08/28 09:55:36;;;;;;;2.15;2.05;;;24.30;99.90;;;24.58;47.50;102089.16;4826143;29;20050;-63
2022/08/28 09:58:06;;;;;;;2.17;2.08;;;24.40;99.90;;;24.40;48.31;102092.63;4826170;29;20054;-63
2022/08/28 10:00:38;;;;;;;2.10;2.00;;;24.10;99.90;;;24.32;47.72;102089.34;4825928;29;20477;-63
2022/08/28 10:03:14;;;;;;;2.53;2.42;;;24.10;99.90;;;24.36;48.35;102094.59;4826090;29;20531;-69
2022/08/28 10:06:02;;;;;;;2.17;2.08;;;24.10;99.90;;;24.51;49.12;102093.94;4826602;29;20117;-64
2022/08/28 10:09:02;;;;;;;1.83;1.80;;;24.20;99.90;;;24.56;48.54;102101.88;4826558;29;20115;-64
2022/08/28 10:11:50;;;;;;;2.05;1.95;;;24.30;99.90;;;24.58;48.83;102099.97;4825992;29;20053;-64
2022/08/28 10:14:41;;;;;;;1.70;1.70;;;24.30;99.90;;;24.76;48.78;102100.09;4826261;29;20055;-60
2022/08/28 10:17:25;;;;;;;2.38;2.28;;;24.40;99.90;;;24.96;49.48;102099.22;4824858;29;20086;-59
2022/08/28 10:20:01;;;;;;;1.88;1.80;;;24.60;99.90;;;25.08;48.14;102098.69;4826058;29;20081;-59
2022/08/28 10:22:41;;;;;;;2.22;2.13;;;24.80;99.90;;;25.06;46.87;102097.84;4824265;29;20118;-59
2022/08/28 10:25:25;;;;;;;1.60;1.60;;;24.90;99.90;;;25.14;47.05;102098.41;4825734;29;20078;-60
2022/08/28 10:28:14;;;;;;;1.70;1.70;;;24.90;99.90;;;25.45;47.79;102097.91;4825595;29;20057;-59
2022/08/28 10:30:55;;;;;;;2.00;1.90;;;25.10;99.90;;;25.67;46.54;102094.09;4825471;29;20054;-59
2022/08/28 10:33:49;;;;;;;1.55;1.55;;;25.40;99.90;;;25.62;45.40;102093.47;4825618;29;20051;-59
2022/08/28 10:36:23;;;;;;;2.00;1.90;;;25.50;99.90;;;25.72;46.51;102092.06;4825598;29;20074;-60
2022/08/28 10:39:23;;;;;;;1.70;1.70;;;25.50;99.90;;;25.69;45.66;102091.31;4825786;29;20053;-59